createdAt,value
2023-05-02T00:00:03.348Z,0.4126
2023-05-02T00:01:07.374Z,0.4125
2023-05-02T00:02:11.439Z,0.4121
2023-05-02T00:03:15.408Z,0.4115
2023-05-02T00:04:19.383Z,0.4115
2023-05-02T00:05:23.550Z,0.4120
2023-05-02T00:06:27.504Z,0.4124
2023-05-02T00:07:31.419Z,0.4124
2023-05-02T00:08:35.330Z,0.4121
2023-05-02T00:09:39.240Z,0.4137
2023-05-02T00:10:43.140Z,0.4146
2023-05-02T00:11:47.039Z,0.4145
2023-05-02T00:12:50.938Z,0.4143
2023-05-02T00:13:54.824Z,0.4143
2023-05-02T00:14:59.490Z,0.4142
2023-05-02T00:16:03.380Z,0.4133
2023-05-02T00:17:07.338Z,0.4129
2023-05-02T00:18:11.252Z,0.4137
2023-05-02T00:19:15.150Z,0.4137
2023-05-02T00:20:19.131Z,0.4139
2023-05-02T00:21:23.034Z,0.4139
2023-05-02T00:22:26.921Z,0.4134
2023-05-02T00:23:30.814Z,0.4133
2023-05-02T00:24:34.700Z,0.4125
2023-05-02T00:25:38.596Z,0.4120
2023-05-02T00:26:42.475Z,0.4119
2023-05-02T00:27:46.378Z,0.4120
2023-05-02T00:28:50.272Z,0.4124
2023-05-02T00:29:50.732Z,0.4125
2023-05-02T00:30:54.647Z,0.4125
2023-05-02T00:31:58.556Z,0.4123
2023-05-02T00:33:02.493Z,0.4120
2023-05-02T00:34:06.358Z,0.4126
2023-05-02T00:35:10.257Z,0.4132
2023-05-02T00:36:14.152Z,0.4127
2023-05-02T00:37:18.060Z,0.4123
2023-05-02T00:38:21.934Z,0.4131
2023-05-02T00:39:25.822Z,0.4131
2023-05-02T00:40:29.810Z,0.4126
2023-05-02T00:41:33.692Z,0.4126
2023-05-02T00:42:37.606Z,0.4126
2023-05-02T00:43:41.510Z,0.4123
2023-05-02T00:44:45.407Z,0.4121
2023-05-02T00:45:49.325Z,0.4122
2023-05-02T00:46:53.386Z,0.4129
2023-05-02T00:47:57.385Z,0.4131
2023-05-02T00:49:01.319Z,0.4127
2023-05-02T00:50:05.272Z,0.4126
2023-05-02T00:51:09.165Z,0.4123
2023-05-02T00:52:13.047Z,0.4120
2023-05-02T00:53:16.964Z,0.4115
2023-05-02T00:54:20.873Z,0.4113
2023-05-02T00:55:24.791Z,0.4113
2023-05-02T00:56:28.692Z,0.4107
2023-05-02T00:57:32.601Z,0.4107
2023-05-02T00:58:36.512Z,0.4109
2023-05-02T00:59:40.444Z,0.4109
2023-05-02T01:00:44.330Z,0.4117
2023-05-02T01:01:48.286Z,0.4122
2023-05-02T01:02:52.319Z,0.4121
2023-05-02T01:03:56.350Z,0.4116
2023-05-02T01:05:00.254Z,0.4116
2023-05-02T01:06:04.254Z,0.4114
2023-05-02T01:07:08.102Z,0.4118
2023-05-02T01:08:12.127Z,0.4118
2023-05-02T01:09:16.002Z,0.4115
2023-05-02T01:10:19.899Z,0.4114
2023-05-02T01:11:23.812Z,0.4105
2023-05-02T01:12:27.708Z,0.4105
2023-05-02T01:13:31.626Z,0.4100
2023-05-02T01:14:35.520Z,0.4100
2023-05-02T01:15:39.453Z,0.4097
2023-05-02T01:16:43.408Z,0.4104
2023-05-02T01:17:47.338Z,0.4104
2023-05-02T01:18:51.219Z,0.4108
2023-05-02T01:19:55.107Z,0.4105
2023-05-02T01:20:59.001Z,0.4101
2023-05-02T01:22:02.958Z,0.4090
2023-05-02T01:23:07.206Z,0.4092
2023-05-02T01:24:11.103Z,0.4109
2023-05-02T01:25:15.010Z,0.4116
2023-05-02T01:26:18.913Z,0.4118
2023-05-02T01:27:22.831Z,0.4118
2023-05-02T01:28:26.747Z,0.4127
2023-05-02T01:29:30.658Z,0.4120
2023-05-02T01:30:34.568Z,0.4110
2023-05-02T01:31:38.593Z,0.4109
2023-05-02T01:32:42.783Z,0.4108
2023-05-02T01:33:46.667Z,0.4104
2023-05-02T01:34:50.565Z,0.4104
2023-05-02T01:35:54.525Z,0.4104
2023-05-02T01:36:58.416Z,0.4099
2023-05-02T01:38:02.333Z,0.4099
2023-05-02T01:39:06.212Z,0.4099
2023-05-02T01:40:10.133Z,0.4103
2023-05-02T01:41:14.023Z,0.4103
2023-05-02T01:42:17.942Z,0.4103
2023-05-02T01:43:21.856Z,0.4100
2023-05-02T01:44:25.729Z,0.4093
2023-05-02T01:45:29.622Z,0.4088
2023-05-02T01:46:33.577Z,0.4083
2023-05-02T01:47:37.512Z,0.4075
2023-05-02T01:48:41.416Z,0.4074
2023-05-02T01:49:45.316Z,0.4074
2023-05-02T01:50:49.239Z,0.4074
2023-05-02T01:51:53.162Z,0.4074
2023-05-02T01:52:57.093Z,0.4074
2023-05-02T01:54:00.968Z,0.4074
2023-05-02T01:55:04.866Z,0.4071
2023-05-02T01:56:08.748Z,0.4063
2023-05-02T01:57:12.650Z,0.4059
2023-05-02T01:58:16.771Z,0.4055
2023-05-02T01:59:20.649Z,0.4060
2023-05-02T02:00:24.783Z,0.4055
2023-05-02T02:01:28.699Z,0.4050
2023-05-02T02:02:32.586Z,0.4046
2023-05-02T02:03:36.578Z,0.4043
2023-05-02T02:04:40.628Z,0.4033
2023-05-02T02:05:41.605Z,0.4032
2023-05-02T02:06:45.624Z,0.4032
2023-05-02T02:07:49.896Z,0.4029
2023-05-02T02:08:53.782Z,0.4036
2023-05-02T02:09:57.805Z,0.4045
2023-05-02T02:11:01.795Z,0.4047
2023-05-02T02:12:05.712Z,0.4047
2023-05-02T02:13:09.624Z,0.4044
2023-05-02T02:14:13.536Z,0.4043
2023-05-02T02:15:17.444Z,0.4043
2023-05-02T02:16:21.416Z,0.4043
2023-05-02T02:17:25.676Z,0.4043
2023-05-02T02:18:29.851Z,0.4043
2023-05-02T02:19:33.746Z,0.4043
2023-05-02T02:20:37.644Z,0.4043
2023-05-02T02:21:41.519Z,0.4047
2023-05-02T02:22:45.646Z,0.4047
2023-05-02T02:23:49.563Z,0.4047
2023-05-02T02:24:54.405Z,0.4047
2023-05-02T02:25:58.495Z,0.4043
2023-05-02T02:27:02.388Z,0.4044
2023-05-02T02:28:06.280Z,0.4045
2023-05-02T02:29:10.184Z,0.4037
2023-05-02T02:30:14.119Z,0.4040
2023-05-02T02:31:18.093Z,0.4044
2023-05-02T02:32:21.956Z,0.4041
2023-05-02T02:33:25.840Z,0.4042
2023-05-02T02:34:29.726Z,0.4042
2023-05-02T02:35:33.615Z,0.4043
2023-05-02T02:36:37.521Z,0.4039
2023-05-02T02:37:41.404Z,0.4037
2023-05-02T02:38:45.291Z,0.4045
2023-05-02T02:39:49.174Z,0.4041
2023-05-02T02:40:53.051Z,0.4043
2023-05-02T02:41:56.937Z,0.4049
2023-05-02T02:43:00.848Z,0.4057
2023-05-02T02:44:04.726Z,0.4055
2023-05-02T02:45:09.570Z,0.4062
2023-05-02T02:46:13.489Z,0.4064
2023-05-02T02:47:17.350Z,0.4069
2023-05-02T02:48:21.233Z,0.4070
2023-05-02T02:49:25.147Z,0.4077
2023-05-02T02:50:29.025Z,0.4084
2023-05-02T02:51:32.961Z,0.4088
2023-05-02T02:52:37.095Z,0.4089
2023-05-02T02:53:41.001Z,0.4089
2023-05-02T02:54:44.928Z,0.4084
2023-05-02T02:55:49.593Z,0.4077
2023-05-02T02:56:53.485Z,0.4077
2023-05-02T02:57:57.378Z,0.4077
2023-05-02T02:59:01.272Z,0.4077
2023-05-02T03:00:05.390Z,0.4074
2023-05-02T03:01:09.300Z,0.4071
2023-05-02T03:02:13.221Z,0.4066
2023-05-02T03:03:17.169Z,0.4060
2023-05-02T03:04:21.155Z,0.4056
2023-05-02T03:05:25.667Z,0.4050
2023-05-02T03:06:29.627Z,0.4046
2023-05-02T03:07:33.626Z,0.4049
2023-05-02T03:08:37.544Z,0.4053
2023-05-02T03:09:41.454Z,0.4053
2023-05-02T03:10:45.354Z,0.4053
2023-05-02T03:11:49.267Z,0.4053
2023-05-02T03:12:53.188Z,0.4052
2023-05-02T03:13:57.097Z,0.4053
2023-05-02T03:15:01.259Z,0.4053
2023-05-02T03:16:05.181Z,0.4050
2023-05-02T03:17:09.172Z,0.4053
2023-05-02T03:18:13.083Z,0.4049
2023-05-02T03:19:17.279Z,0.4045
2023-05-02T03:20:21.167Z,0.4057
2023-05-02T03:21:25.069Z,0.4071
2023-05-02T03:22:28.954Z,0.4071
2023-05-02T03:23:32.835Z,0.4076
2023-05-02T03:24:36.710Z,0.4076
2023-05-02T03:25:40.614Z,0.4090
2023-05-02T03:26:44.514Z,0.4090
2023-05-02T03:27:48.405Z,0.4086
2023-05-02T03:28:52.396Z,0.4082
2023-05-02T03:29:56.300Z,0.4083
2023-05-02T03:31:00.326Z,0.4083
2023-05-02T03:32:04.407Z,0.4076
2023-05-02T03:33:08.417Z,0.4080
2023-05-02T03:34:12.305Z,0.4078
2023-05-02T03:35:16.196Z,0.4082
2023-05-02T03:36:20.090Z,0.4084
2023-05-02T03:37:24.003Z,0.4084
2023-05-02T03:38:27.913Z,0.4093
2023-05-02T03:39:31.824Z,0.4093
2023-05-02T03:40:35.713Z,0.4089
2023-05-02T03:41:39.595Z,0.4089
2023-05-02T03:42:43.493Z,0.4089
2023-05-02T03:43:47.376Z,0.4094
2023-05-02T03:44:51.276Z,0.4091
2023-05-02T03:45:55.154Z,0.4086
2023-05-02T03:46:59.125Z,0.4080
2023-05-02T03:48:03.135Z,0.4077
2023-05-02T03:49:07.003Z,0.4073
2023-05-02T03:50:07.411Z,0.4072
2023-05-02T03:51:11.308Z,0.4072
2023-05-02T03:52:15.198Z,0.4067
2023-05-02T03:53:19.094Z,0.4067
2023-05-02T03:54:22.984Z,0.4064
2023-05-02T03:55:26.878Z,0.4067
2023-05-02T03:56:30.749Z,0.4076
2023-05-02T03:57:34.690Z,0.4080
2023-05-02T03:58:38.546Z,0.4086
2023-05-02T03:59:42.419Z,0.4085
2023-05-02T04:00:46.316Z,0.4084
2023-05-02T04:01:50.318Z,0.4076
2023-05-02T04:02:54.548Z,0.4075
2023-05-02T04:03:58.512Z,0.4071
2023-05-02T04:05:02.391Z,0.4072
2023-05-02T04:06:06.285Z,0.4065
2023-05-02T04:07:10.170Z,0.4058
2023-05-02T04:08:14.044Z,0.4058
2023-05-02T04:09:17.929Z,0.4058
2023-05-02T04:10:21.824Z,0.4055
2023-05-02T04:11:25.790Z,0.4047
2023-05-02T04:12:29.632Z,0.4048
2023-05-02T04:13:33.523Z,0.4052
2023-05-02T04:14:37.442Z,0.4056
2023-05-02T04:15:41.351Z,0.4060
2023-05-02T04:16:45.302Z,0.4065
2023-05-02T04:17:49.264Z,0.4065
2023-05-02T04:18:53.146Z,0.4070
2023-05-02T04:19:57.037Z,0.4070
2023-05-02T04:21:00.941Z,0.4071
2023-05-02T04:22:04.869Z,0.4071
2023-05-02T04:23:04.965Z,0.4071
2023-05-02T04:24:08.872Z,0.4071
2023-05-02T04:25:12.780Z,0.4071
2023-05-02T04:26:16.689Z,0.4077
2023-05-02T04:27:20.586Z,0.4080
2023-05-02T04:28:24.531Z,0.4089
2023-05-02T04:29:28.421Z,0.4091
2023-05-02T04:30:32.325Z,0.4097
2023-05-02T04:31:36.276Z,0.4097
2023-05-02T04:32:40.277Z,0.4098
2023-05-02T04:33:44.185Z,0.4097
2023-05-02T04:34:48.051Z,0.4099
2023-05-02T04:35:52.213Z,0.4102
2023-05-02T04:36:56.117Z,0.4103
2023-05-02T04:38:00.256Z,0.4111
2023-05-02T04:39:04.173Z,0.4111
2023-05-02T04:40:08.109Z,0.4104
2023-05-02T04:41:12.007Z,0.4109
2023-05-02T04:42:15.914Z,0.4121
2023-05-02T04:43:19.822Z,0.4124
2023-05-02T04:44:23.735Z,0.4128
2023-05-02T04:45:27.873Z,0.4127
2023-05-02T04:46:31.886Z,0.4127
2023-05-02T04:47:35.824Z,0.4123
2023-05-02T04:48:39.723Z,0.4131
2023-05-02T04:49:43.621Z,0.4135
2023-05-02T04:50:47.509Z,0.4134
2023-05-02T04:51:51.407Z,0.4125
2023-05-02T04:52:55.317Z,0.4124
2023-05-02T04:53:59.235Z,0.4131
2023-05-02T04:55:03.133Z,0.4129
2023-05-02T04:56:07.013Z,0.4122
2023-05-02T04:57:11.040Z,0.4118
2023-05-02T04:58:14.964Z,0.4118
2023-05-02T04:59:18.866Z,0.4121
2023-05-02T05:00:19.268Z,0.4120
2023-05-02T05:01:23.180Z,0.4118
2023-05-02T05:02:27.302Z,0.4119
2023-05-02T05:03:31.338Z,0.4119
2023-05-02T05:04:35.232Z,0.4119
2023-05-02T05:05:39.254Z,0.4139
2023-05-02T05:06:43.259Z,0.4137
2023-05-02T05:07:47.125Z,0.4139
2023-05-02T05:08:51.011Z,0.4137
2023-05-02T05:09:54.940Z,0.4135
2023-05-02T05:10:59.125Z,0.4135
2023-05-02T05:12:03.037Z,0.4133
2023-05-02T05:13:07.183Z,0.4130
2023-05-02T05:14:11.111Z,0.4131
2023-05-02T05:15:15.008Z,0.4133
2023-05-02T05:16:18.981Z,0.4137
2023-05-02T05:17:22.920Z,0.4132
2023-05-02T05:18:26.793Z,0.4129
2023-05-02T05:19:30.681Z,0.4133
2023-05-02T05:20:34.562Z,0.4139
2023-05-02T05:23:09.552Z,0.4202
2023-05-02T05:24:11.308Z,0.4699
2023-05-02T05:25:13.017Z,0.4471
2023-05-02T05:26:14.720Z,0.4576
2023-05-02T05:27:16.481Z,0.4747
2023-05-02T05:28:18.187Z,0.4402
2023-05-02T05:29:19.900Z,0.4312
2023-05-02T05:30:21.627Z,0.4277
2023-05-02T05:31:23.348Z,0.4326
2023-05-02T05:32:25.109Z,0.4264
2023-05-02T05:33:26.907Z,0.4257
2023-05-02T05:34:28.530Z,0.4308
2023-05-02T05:35:30.248Z,0.4338
2023-05-02T05:36:31.937Z,0.4402
2023-05-02T05:37:33.653Z,0.4312
2023-05-02T05:38:35.377Z,0.4357
2023-05-02T05:39:37.111Z,0.4377
2023-05-02T05:40:38.820Z,0.4472
2023-05-02T05:41:40.542Z,0.4450
2023-05-02T05:42:42.261Z,0.4501
2023-05-02T05:43:43.970Z,0.4469
2023-05-02T05:44:45.736Z,0.4513
2023-05-02T05:45:47.440Z,0.4467
2023-05-02T05:46:50.024Z,0.4414
2023-05-02T05:47:50.921Z,0.4419
2023-05-02T05:48:52.603Z,0.4415
2023-05-02T05:49:54.321Z,0.4389
2023-05-02T05:50:56.031Z,0.4385
2023-05-02T05:51:57.762Z,0.4378
2023-05-02T05:52:59.482Z,0.4381
2023-05-02T05:54:01.191Z,0.4393
2023-05-02T05:55:02.885Z,0.4375
2023-05-02T05:56:04.609Z,0.4358
2023-05-02T05:57:06.339Z,0.4345
2023-05-02T05:58:08.060Z,0.4344
2023-05-02T05:59:09.784Z,0.4342
2023-05-02T06:00:11.503Z,0.4316
2023-05-02T06:01:13.215Z,0.4311
2023-05-02T06:02:15.001Z,0.4317
2023-05-02T06:03:16.705Z,0.4315
2023-05-02T06:04:18.367Z,0.4321
2023-05-02T06:05:20.105Z,0.4332
2023-05-02T06:06:21.894Z,0.4328
2023-05-02T06:07:23.533Z,0.4331
2023-05-02T06:08:25.264Z,0.4339
2023-05-02T06:09:26.979Z,0.4330
2023-05-02T06:10:28.787Z,0.4311
2023-05-02T06:11:30.415Z,0.4322
2023-05-02T06:12:32.139Z,0.4331
2023-05-02T06:13:33.854Z,0.4332
2023-05-02T06:14:35.586Z,0.4325
2023-05-02T06:15:37.365Z,0.4304
2023-05-02T06:16:39.128Z,0.4274
2023-05-02T06:17:40.747Z,0.4258
2023-05-02T06:18:42.428Z,0.4246
2023-05-02T06:19:44.151Z,0.4249
2023-05-02T06:20:45.892Z,0.4232
2023-05-02T06:21:47.619Z,0.4244
2023-05-02T06:22:49.338Z,0.4255
2023-05-02T06:23:51.053Z,0.4265
2023-05-02T06:24:52.768Z,0.4254
2023-05-02T06:25:54.494Z,0.4249
2023-05-02T06:26:56.231Z,0.4244
2023-05-02T06:27:57.939Z,0.4249
2023-05-02T06:28:59.664Z,0.4242
2023-05-02T06:30:01.623Z,0.4240
2023-05-02T06:31:03.190Z,0.4243
2023-05-02T06:32:04.874Z,0.4246
2023-05-02T06:33:06.584Z,0.4261
2023-05-02T06:34:08.246Z,0.4265
2023-05-02T06:35:09.992Z,0.4284
2023-05-02T06:36:11.661Z,0.4287
2023-05-02T06:37:13.391Z,0.4307
2023-05-02T06:38:15.106Z,0.4319
2023-05-02T06:39:16.827Z,0.4323
2023-05-02T06:40:18.537Z,0.4320
2023-05-02T06:41:20.299Z,0.4329
2023-05-02T06:42:21.986Z,0.4326
2023-05-02T06:43:23.710Z,0.4321
2023-05-02T06:44:25.469Z,0.4325
2023-05-02T06:45:27.165Z,0.4336
2023-05-02T06:46:28.895Z,0.4324
2023-05-02T06:47:30.701Z,0.4329
2023-05-02T06:48:32.319Z,0.4328
2023-05-02T06:49:34.032Z,0.4340
2023-05-02T06:50:35.775Z,0.4340
2023-05-02T06:51:37.503Z,0.4337
2023-05-02T06:52:39.205Z,0.4336
2023-05-02T06:53:40.970Z,0.4331
2023-05-02T06:54:42.659Z,0.4320
2023-05-02T06:55:44.379Z,0.4318
2023-05-02T06:56:46.111Z,0.4330
2023-05-02T06:57:47.822Z,0.4334
2023-05-02T06:58:49.556Z,0.4328
2023-05-02T06:59:51.308Z,0.4313
2023-05-02T07:00:53.005Z,0.4298
2023-05-02T07:01:54.717Z,0.4285
2023-05-02T07:02:56.487Z,0.4289
2023-05-02T07:03:58.196Z,0.4307
2023-05-02T07:04:59.883Z,0.4302
2023-05-02T07:06:01.684Z,0.4295
2023-05-02T07:07:03.333Z,0.4296
2023-05-02T07:08:05.053Z,0.4305
2023-05-02T07:09:06.784Z,0.4293
2023-05-02T07:10:08.505Z,0.4281
2023-05-02T07:11:10.241Z,0.4275
2023-05-02T07:12:11.935Z,0.4269
2023-05-02T07:13:13.653Z,0.4275
2023-05-02T07:14:15.378Z,0.4286
2023-05-02T07:15:17.065Z,0.4282
2023-05-02T07:16:18.846Z,0.4282
2023-05-02T07:17:20.540Z,0.4277
2023-05-02T07:18:22.236Z,0.4277
2023-05-02T07:19:23.954Z,0.4281
2023-05-02T07:20:25.743Z,0.4271
2023-05-02T07:21:27.419Z,0.4301
2023-05-02T07:22:29.115Z,0.4340
2023-05-02T07:23:30.847Z,0.4337
2023-05-02T07:24:32.568Z,0.4302
2023-05-02T07:25:34.279Z,0.4274
2023-05-02T07:26:35.996Z,0.4286
2023-05-02T07:27:37.742Z,0.4308
2023-05-02T07:28:39.453Z,0.4281
2023-05-02T07:29:41.183Z,0.4265
2023-05-02T07:30:42.891Z,0.4247
2023-05-02T07:31:44.668Z,0.4290
2023-05-02T07:32:46.393Z,0.4296
2023-05-02T07:33:48.065Z,0.4313
2023-05-02T07:34:49.758Z,0.4331
2023-05-02T07:35:51.485Z,0.4312
2023-05-02T07:36:53.203Z,0.4232
2023-05-02T07:37:54.997Z,0.4210
2023-05-02T07:38:57.448Z,0.4194
2023-05-02T07:40:01.598Z,0.4168
2023-05-02T07:41:05.779Z,0.4173
2023-05-02T07:42:09.674Z,0.4161
2023-05-02T07:43:13.563Z,0.4143
2023-05-02T07:44:17.438Z,0.4153
2023-05-02T07:45:21.492Z,0.4176
2023-05-02T07:46:25.554Z,0.4173
2023-05-02T07:47:33.434Z,0.4164
2023-05-02T07:48:32.029Z,0.4143
2023-05-02T07:49:35.907Z,0.4150
2023-05-02T07:50:39.823Z,0.4151
2023-05-02T07:51:44.581Z,0.4159
2023-05-02T07:52:48.875Z,0.4158
2023-05-02T07:53:52.278Z,0.4169
2023-05-02T07:54:56.181Z,0.4186
2023-05-02T07:56:00.134Z,0.4150
2023-05-02T07:57:04.148Z,0.4110
2023-05-02T07:58:08.041Z,0.4104
2023-05-02T07:59:12.176Z,0.4097
2023-05-02T08:00:16.135Z,0.4086
2023-05-02T08:01:20.027Z,0.4109
2023-05-02T08:02:25.852Z,0.4111
2023-05-02T08:03:24.800Z,0.4124
2023-05-02T08:04:30.610Z,0.4145
2023-05-02T08:05:29.297Z,0.4115
2023-05-02T08:06:33.252Z,0.4103
2023-05-02T08:07:37.390Z,0.4124
2023-05-02T08:08:41.330Z,0.4130
2023-05-02T08:09:45.243Z,0.4112
2023-05-02T08:10:49.281Z,0.4148
2023-05-02T08:11:53.178Z,0.4136
2023-05-02T08:12:59.384Z,0.4122
2023-05-02T08:13:58.490Z,0.4119
2023-05-02T08:14:58.916Z,0.4124
2023-05-02T08:16:02.914Z,0.4128
2023-05-02T08:17:06.790Z,0.4142
2023-05-02T08:18:10.804Z,0.4149
2023-05-02T08:19:14.726Z,0.4172
2023-05-02T08:20:18.596Z,0.4232
2023-05-02T08:21:22.517Z,0.4240
2023-05-02T08:22:26.390Z,0.4226
2023-05-02T08:23:30.308Z,0.4180
2023-05-02T08:24:34.210Z,0.4171
2023-05-02T08:25:38.156Z,0.4183
2023-05-02T08:26:42.073Z,0.4173
2023-05-02T08:27:45.987Z,0.4159
2023-05-02T08:28:49.890Z,0.4158
2023-05-02T08:29:53.839Z,0.4182
2023-05-02T08:30:57.724Z,0.4181
2023-05-02T08:32:01.728Z,0.4182
2023-05-02T08:33:05.706Z,0.4184
2023-05-02T08:34:09.614Z,0.4173
2023-05-02T08:35:13.493Z,0.4175
2023-05-02T08:36:17.378Z,0.4179
2023-05-02T08:37:21.301Z,0.4172
2023-05-02T08:38:25.186Z,0.4187
2023-05-02T08:39:29.082Z,0.4193
2023-05-02T08:40:41.571Z,0.4202
2023-05-02T08:41:37.461Z,0.4210
2023-05-02T08:42:41.375Z,0.4197
2023-05-02T08:43:45.406Z,0.4164
2023-05-02T08:44:49.298Z,0.4154
2023-05-02T08:45:53.202Z,0.4131
2023-05-02T08:46:57.160Z,0.4132
2023-05-02T08:48:01.146Z,0.4141
2023-05-02T08:49:05.015Z,0.4145
2023-05-02T08:50:09.188Z,0.4148
2023-05-02T08:51:13.087Z,0.4140
2023-05-02T08:52:16.995Z,0.4129
2023-05-02T08:53:20.927Z,0.4136
2023-05-02T08:54:25.025Z,0.4096
2023-05-02T08:55:28.946Z,0.4105
2023-05-02T08:56:32.868Z,0.4122
2023-05-02T08:57:37.097Z,0.4112
2023-05-02T08:58:41.046Z,0.4106
2023-05-02T08:59:44.910Z,0.4098
2023-05-02T09:00:48.831Z,0.4090
2023-05-02T09:01:52.723Z,0.4102
2023-05-02T09:02:56.636Z,0.4086
2023-05-02T09:04:00.609Z,0.4093
2023-05-02T09:05:04.514Z,0.4086
2023-05-02T09:06:08.432Z,0.4064
2023-05-02T09:07:12.328Z,0.4062
2023-05-02T09:08:16.213Z,0.4060
2023-05-02T09:09:20.127Z,0.4067
2023-05-02T09:10:24.039Z,0.4064
2023-05-02T09:11:27.991Z,0.4059
2023-05-02T09:12:32.087Z,0.4048
2023-05-02T09:13:35.996Z,0.4043
2023-05-02T09:14:39.875Z,0.4040
2023-05-02T09:15:43.781Z,0.4031
2023-05-02T09:16:47.793Z,0.4043
2023-05-02T09:17:51.982Z,0.4053
2023-05-02T09:18:55.918Z,0.4055
2023-05-02T09:19:59.936Z,0.4054
2023-05-02T09:21:03.849Z,0.4068
2023-05-02T09:22:07.768Z,0.4052
2023-05-02T09:23:11.682Z,0.4043
2023-05-02T09:24:15.614Z,0.4035
2023-05-02T09:25:19.753Z,0.4034
2023-05-02T09:26:23.675Z,0.4030
2023-05-02T09:27:27.532Z,0.4031
2023-05-02T09:28:31.430Z,0.4031
2023-05-02T09:29:35.349Z,0.4038
2023-05-02T09:30:39.296Z,0.4030
2023-05-02T09:31:55.616Z,0.4021
2023-05-02T09:32:47.748Z,0.4018
2023-05-02T09:33:51.640Z,0.4024
2023-05-02T09:34:55.552Z,0.4050
2023-05-02T09:35:59.438Z,0.4046
2023-05-02T09:37:03.363Z,0.4064
2023-05-02T09:38:07.231Z,0.4083
2023-05-02T09:39:11.132Z,0.4097
2023-05-02T09:40:15.065Z,0.4092
2023-05-02T09:41:18.945Z,0.4093
2023-05-02T09:42:22.858Z,0.4114
2023-05-02T09:43:26.755Z,0.4135
2023-05-02T09:44:30.752Z,0.4136
2023-05-02T09:45:35.362Z,0.4140
2023-05-02T09:46:39.404Z,0.4119
2023-05-02T09:47:43.304Z,0.4104
2023-05-02T09:48:47.162Z,0.4106
2023-05-02T09:49:51.069Z,0.4121
2023-05-02T09:50:54.989Z,0.4140
2023-05-02T09:51:58.890Z,0.4162
2023-05-02T09:53:02.928Z,0.4170
2023-05-02T09:54:06.925Z,0.4186
2023-05-02T09:55:10.789Z,0.4188
2023-05-02T09:56:14.710Z,0.4202
2023-05-02T09:57:18.643Z,0.4199
2023-05-02T09:58:22.535Z,0.4193
2023-05-02T09:59:26.425Z,0.4203
2023-05-02T10:00:30.347Z,0.4187
2023-05-02T10:01:34.269Z,0.4175
2023-05-02T10:02:38.258Z,0.4154
2023-05-02T10:03:42.187Z,0.4160
2023-05-02T10:04:46.144Z,0.4179
2023-05-02T10:05:50.071Z,0.4184
2023-05-02T10:06:53.978Z,0.4186
2023-05-02T10:07:57.893Z,0.4195
2023-05-02T10:09:01.817Z,0.4208
2023-05-02T10:10:05.733Z,0.4214
2023-05-02T10:11:09.633Z,0.4195
2023-05-02T10:12:13.564Z,0.4169
2023-05-02T10:13:17.475Z,0.4151
2023-05-02T10:14:21.491Z,0.4162
2023-05-02T10:15:25.374Z,0.4139
2023-05-02T10:16:29.290Z,0.4130
2023-05-02T10:17:33.550Z,0.4143
2023-05-02T10:18:37.458Z,0.4137
2023-05-02T10:19:41.370Z,0.4138
2023-05-02T10:20:45.257Z,0.4125
2023-05-02T10:21:49.178Z,0.4102
2023-05-02T10:22:53.100Z,0.4093
2023-05-02T10:23:56.993Z,0.4101
2023-05-02T10:25:01.201Z,0.4096
2023-05-02T10:26:05.365Z,0.4093
2023-05-02T10:27:09.295Z,0.4085
2023-05-02T10:28:13.194Z,0.4087
2023-05-02T10:29:17.145Z,0.4104
2023-05-02T10:30:21.039Z,0.4120
2023-05-02T10:31:24.960Z,0.4126
2023-05-02T10:32:29.219Z,0.4129
2023-05-02T10:33:33.125Z,0.4151
2023-05-02T10:34:36.988Z,0.4136
2023-05-02T10:35:40.959Z,0.4138
2023-05-02T10:36:44.826Z,0.4149
2023-05-02T10:37:48.896Z,0.4133
2023-05-02T10:38:52.792Z,0.4134
2023-05-02T10:39:56.693Z,0.4139
2023-05-02T10:41:00.576Z,0.4138
2023-05-02T10:42:04.488Z,0.4121
2023-05-02T10:43:08.414Z,0.4101
2023-05-02T10:44:12.323Z,0.4089
2023-05-02T10:45:16.234Z,0.4087
2023-05-02T10:46:20.189Z,0.4083
2023-05-02T10:47:24.152Z,0.4078
2023-05-02T10:48:28.104Z,0.4100
2023-05-02T10:49:32.029Z,0.4094
2023-05-02T10:50:36.138Z,0.4089
2023-05-02T10:51:40.044Z,0.4109
2023-05-02T10:52:43.951Z,0.4099
2023-05-02T10:53:47.893Z,0.4095
2023-05-02T10:54:51.810Z,0.4108
2023-05-02T10:55:55.717Z,0.4091
2023-05-02T10:56:59.625Z,0.4080
2023-05-02T10:58:03.529Z,0.4094
2023-05-02T10:59:07.435Z,0.4089
2023-05-02T11:00:07.632Z,0.4089
2023-05-02T11:01:11.587Z,0.4064
2023-05-02T11:02:15.708Z,0.4064
2023-05-02T11:03:19.642Z,0.4061
2023-05-02T11:04:23.532Z,0.4050
2023-05-02T11:05:27.399Z,0.4056
2023-05-02T11:06:31.323Z,0.4057
2023-05-02T11:07:35.234Z,0.4062
2023-05-02T11:08:39.167Z,0.4057
2023-05-02T11:09:43.056Z,0.4044
2023-05-02T11:10:46.986Z,0.4062
2023-05-02T11:11:50.899Z,0.4068
2023-05-02T11:12:54.797Z,0.4057
2023-05-02T11:13:58.698Z,0.4053
2023-05-02T11:15:02.790Z,0.4042
2023-05-02T11:16:06.920Z,0.4006
2023-05-02T11:17:10.786Z,0.4008
2023-05-02T11:18:14.811Z,0.4008
2023-05-02T11:19:18.678Z,0.3992
2023-05-02T11:20:22.549Z,0.3982
2023-05-02T11:21:26.442Z,0.3974
2023-05-02T11:22:30.350Z,0.3978
2023-05-02T11:23:34.219Z,0.3955
2023-05-02T11:24:38.142Z,0.3948
2023-05-02T11:25:42.098Z,0.3950
2023-05-02T11:26:45.978Z,0.3963
2023-05-02T11:27:49.917Z,0.3973
2023-05-02T11:28:53.809Z,0.3985
2023-05-02T11:29:57.723Z,0.3974
2023-05-02T11:31:01.614Z,0.3974
2023-05-02T11:32:05.554Z,0.3973
2023-05-02T11:33:09.470Z,0.3960
2023-05-02T11:34:13.333Z,0.3965
2023-05-02T11:35:17.228Z,0.3964
2023-05-02T11:36:21.147Z,0.3949
2023-05-02T11:37:25.049Z,0.3954
2023-05-02T11:38:28.992Z,0.3959
2023-05-02T11:39:32.890Z,0.3962
2023-05-02T11:40:36.799Z,0.3967
2023-05-02T11:41:40.724Z,0.3963
2023-05-02T11:42:44.632Z,0.3971
2023-05-02T11:43:48.542Z,0.3975
2023-05-02T11:44:52.461Z,0.3976
2023-05-02T11:45:56.463Z,0.3982
2023-05-02T11:47:00.385Z,0.3978
2023-05-02T11:48:04.349Z,0.3994
2023-05-02T11:49:09.334Z,0.3992
2023-05-02T11:50:08.754Z,0.3998
2023-05-02T11:51:12.680Z,0.4002
2023-05-02T11:52:16.607Z,0.3986
2023-05-02T11:53:20.512Z,0.3993
2023-05-02T11:54:24.434Z,0.4007
2023-05-02T11:55:28.580Z,0.4022
2023-05-02T11:56:32.467Z,0.4017
2023-05-02T11:57:36.437Z,0.4021
2023-05-02T11:58:40.347Z,0.4006
2023-05-02T11:59:44.259Z,0.4002
2023-05-02T12:00:48.179Z,0.3991
2023-05-02T12:01:52.086Z,0.3997
2023-05-02T12:02:56.186Z,0.3991
2023-05-02T12:04:00.140Z,0.3992
2023-05-02T12:05:04.331Z,0.3995
2023-05-02T12:06:08.516Z,0.4017
2023-05-02T12:07:12.523Z,0.4009
2023-05-02T12:08:16.397Z,0.4012
2023-05-02T12:09:20.299Z,0.4011
2023-05-02T12:10:24.190Z,0.4020
2023-05-02T12:11:28.060Z,0.4006
2023-05-02T12:12:31.975Z,0.4008
2023-05-02T12:13:35.896Z,0.4008
2023-05-02T12:14:39.802Z,0.4005
2023-05-02T12:15:43.737Z,0.3994
2023-05-02T12:16:47.833Z,0.3998
2023-05-02T12:17:51.834Z,0.3993
2023-05-02T12:18:55.715Z,0.3997
2023-05-02T12:19:59.876Z,0.3994
2023-05-02T12:21:03.768Z,0.3987
2023-05-02T12:22:07.673Z,0.3987
2023-05-02T12:23:11.577Z,0.3985
2023-05-02T12:24:15.484Z,0.3999
2023-05-02T12:25:19.384Z,0.4013
2023-05-02T12:26:23.317Z,0.4015
2023-05-02T12:27:27.238Z,0.4020
2023-05-02T12:28:31.145Z,0.4014
2023-05-02T12:29:35.050Z,0.4006
2023-05-02T12:30:38.969Z,0.4013
2023-05-02T12:31:42.877Z,0.4015
2023-05-02T12:32:46.761Z,0.4007
2023-05-02T12:33:50.762Z,0.4007
2023-05-02T12:34:54.903Z,0.4014
2023-05-02T12:35:58.811Z,0.4015
2023-05-02T12:37:02.747Z,0.4006
2023-05-02T12:38:06.705Z,0.3999
2023-05-02T12:39:10.600Z,0.4001
2023-05-02T12:40:14.666Z,0.4000
2023-05-02T12:41:18.570Z,0.4004
2023-05-02T12:42:22.460Z,0.4002
2023-05-02T12:43:26.583Z,0.4001
2023-05-02T12:44:30.436Z,0.4004
2023-05-02T12:45:34.358Z,0.4015
2023-05-02T12:46:38.253Z,0.4007
2023-05-02T12:47:42.199Z,0.4006
2023-05-02T12:48:46.838Z,0.4004
2023-05-02T12:49:50.733Z,0.4006
2023-05-02T12:50:54.601Z,0.4003
2023-05-02T12:51:58.580Z,0.4003
2023-05-02T12:53:02.456Z,0.4003
2023-05-02T12:54:06.348Z,0.3998
2023-05-02T12:55:10.248Z,0.3993
2023-05-02T12:56:14.272Z,0.3996
2023-05-02T12:57:18.144Z,0.4001
2023-05-02T12:58:22.028Z,0.4007
2023-05-02T12:59:25.902Z,0.4009
2023-05-02T13:00:29.783Z,0.4010
2023-05-02T13:01:33.783Z,0.4009
2023-05-02T13:02:37.863Z,0.4017
2023-05-02T13:03:41.867Z,0.4031
2023-05-02T13:04:46.089Z,0.4035
2023-05-02T13:05:49.975Z,0.4036
2023-05-02T13:06:53.913Z,0.4032
2023-05-02T13:07:57.814Z,0.4033
2023-05-02T13:09:01.704Z,0.4023
2023-05-02T13:10:05.623Z,0.4021
2023-05-02T13:11:09.533Z,0.4023
2023-05-02T13:12:13.437Z,0.4036
2023-05-02T13:13:17.347Z,0.4046